createdAt,value
2018-05-23T00:02:27.109Z,80.21
2018-05-23T00:05:32.226Z,79.97
2018-05-23T00:08:35.478Z,80.11
2018-05-23T00:11:38.762Z,79.87
2018-05-23T00:14:42.015Z,79.46
2018-05-23T00:17:45.283Z,79.15
2018-05-23T00:20:48.553Z,79.72
2018-05-23T00:23:51.823Z,81.65
2018-05-23T00:26:55.103Z,80.52
2018-05-23T00:29:58.375Z,80.78
2018-05-23T00:33:02.406Z,80.79
2018-05-23T00:36:05.693Z,80.79
2018-05-23T00:39:09.702Z,80.58
2018-05-23T00:42:13.777Z,81.63
2018-05-23T00:45:17.054Z,82.05
2018-05-23T00:48:20.311Z,81.31
2018-05-23T00:51:24.334Z,81.08
2018-05-23T00:54:28.355Z,81.13
2018-05-23T00:57:32.373Z,81.34
2018-05-23T01:00:35.662Z,81.75
2018-05-23T01:03:39.675Z,81.56
2018-05-23T01:06:43.795Z,81.00
2018-05-23T01:09:47.909Z,80.84
2018-05-23T01:12:51.224Z,81.47
2018-05-23T01:15:54.493Z,82.20
2018-05-23T01:18:58.572Z,82.77
2018-05-23T01:22:01.829Z,82.23
2018-05-23T01:25:05.087Z,81.86
2018-05-23T01:28:08.353Z,81.99
2018-05-23T01:31:11.617Z,83.41
2018-05-23T01:34:14.894Z,82.99
2018-05-23T01:37:18.918Z,83.05
2018-05-23T01:40:22.941Z,83.69
2018-05-23T01:43:26.222Z,83.59
2018-05-23T01:46:29.512Z,83.23
2018-05-23T01:49:32.754Z,83.69
2018-05-23T01:52:36.009Z,83.79
2018-05-23T01:55:40.029Z,83.81
2018-05-23T01:58:44.156Z,83.54
2018-05-23T02:01:48.222Z,83.19
2018-05-23T02:04:51.476Z,83.24
2018-05-23T02:07:54.751Z,83.50
2018-05-23T02:10:58.901Z,83.58
2018-05-23T02:14:02.154Z,82.94
2018-05-23T02:17:05.415Z,82.71
2018-05-23T02:20:08.802Z,83.38
2018-05-23T02:23:12.083Z,82.85
2018-05-23T02:26:15.350Z,82.44
2018-05-23T02:29:19.411Z,82.44
2018-05-23T02:32:22.679Z,82.27
2018-05-23T02:35:25.945Z,81.75
2018-05-23T02:38:29.208Z,81.38
2018-05-23T02:41:32.685Z,81.36
2018-05-23T02:44:35.982Z,81.94
2018-05-23T02:47:39.284Z,82.39
2018-05-23T02:50:42.547Z,82.35
2018-05-23T02:53:45.807Z,82.28
2018-05-23T02:56:49.102Z,82.37
2018-05-23T02:59:52.363Z,82.20
2018-05-23T03:02:56.470Z,83.14
2018-05-23T03:05:59.668Z,83.49
2018-05-23T03:09:03.697Z,83.42
2018-05-23T03:12:06.986Z,82.96
2018-05-23T03:15:11.094Z,82.89
2018-05-23T03:18:15.155Z,83.50
2018-05-23T03:21:18.472Z,83.08
2018-05-23T03:24:21.814Z,83.14
2018-05-23T03:27:25.179Z,83.27
2018-05-23T03:30:29.159Z,82.89
2018-05-23T03:33:32.513Z,82.97
2018-05-23T03:36:36.101Z,82.90
2018-05-23T03:39:39.361Z,82.88
2018-05-23T03:42:42.628Z,82.75
2018-05-23T03:45:45.886Z,82.87
2018-05-23T03:48:49.170Z,83.07
2018-05-23T03:51:52.444Z,83.54
2018-05-23T03:54:55.694Z,83.40
2018-05-23T03:57:58.969Z,83.40
2018-05-23T04:01:20.087Z,82.47
2018-05-23T04:04:41.093Z,82.55
2018-05-23T04:07:45.173Z,81.97
2018-05-23T04:10:48.452Z,81.17
2018-05-23T04:13:52.480Z,80.72
2018-05-23T04:16:55.730Z,80.50
2018-05-23T04:19:59.033Z,81.44
2018-05-23T04:23:02.294Z,80.67
2018-05-23T04:26:05.557Z,80.33
2018-05-23T04:29:08.862Z,79.75
2018-05-23T04:32:12.109Z,79.46
2018-05-23T04:35:15.367Z,79.58
2018-05-23T04:38:18.955Z,79.17
2018-05-23T04:41:23.014Z,79.74
2018-05-23T04:44:26.310Z,79.54
2018-05-23T04:47:29.833Z,79.33
2018-05-23T04:50:33.326Z,79.20
2018-05-23T04:53:36.598Z,78.23
2018-05-23T04:56:39.898Z,77.93
2018-05-23T04:59:43.182Z,77.65
2018-05-23T05:02:46.469Z,77.54
2018-05-23T05:05:49.734Z,77.94
2018-05-23T05:08:53.882Z,77.24
2018-05-23T05:11:57.149Z,76.98
2018-05-23T05:15:01.221Z,77.41
2018-05-23T05:18:04.571Z,76.75
2018-05-23T05:21:08.154Z,75.90
2018-05-23T05:24:11.899Z,75.43
2018-05-23T05:27:16.422Z,74.42
2018-05-23T05:30:19.785Z,73.83
2018-05-23T05:33:28.333Z,74.18
2018-05-23T05:36:33.428Z,71.70
2018-05-23T05:39:36.683Z,72.93
2018-05-23T05:42:41.510Z,72.63
2018-05-23T05:45:45.534Z,71.37
2018-05-23T05:48:49.594Z,69.81
2018-05-23T05:51:52.845Z,69.53
2018-05-23T05:54:56.152Z,68.67
2018-05-23T05:57:59.730Z,67.30
2018-05-23T06:01:04.102Z,65.04
2018-05-23T06:04:07.362Z,62.33
2018-05-23T06:07:11.562Z,63.01
2018-05-23T06:10:15.149Z,61.06
2018-05-23T06:13:18.905Z,58.81
2018-05-23T06:16:24.317Z,56.24
2018-05-23T06:19:27.699Z,54.72
2018-05-23T06:22:31.038Z,53.16
2018-05-23T06:25:35.080Z,55.01
2018-05-23T06:28:38.377Z,54.97
2018-05-23T06:31:41.675Z,55.55
2018-05-23T06:34:44.946Z,52.90
2018-05-23T06:37:48.981Z,56.41
2018-05-23T06:40:52.255Z,56.67
2018-05-23T06:43:56.284Z,57.36
2018-05-23T06:47:00.316Z,53.32
2018-05-23T06:50:04.605Z,54.02
2018-05-23T06:53:07.798Z,52.15
2018-05-23T06:56:11.235Z,53.64
2018-05-23T06:59:14.524Z,54.94
2018-05-23T07:02:17.794Z,53.07
2018-05-23T07:05:21.212Z,50.43
2018-05-23T07:08:25.239Z,53.20
2018-05-23T07:11:28.517Z,53.20
2018-05-23T07:14:32.642Z,54.17
2018-05-23T07:17:36.666Z,52.37
2018-05-23T07:20:39.942Z,52.87
2018-05-23T07:23:43.190Z,48.70
2018-05-23T07:26:46.450Z,50.49
2018-05-23T07:29:49.713Z,50.28
2018-05-23T07:32:53.046Z,53.03
2018-05-23T07:35:56.318Z,53.16
2018-05-23T07:38:59.587Z,53.74
2018-05-23T07:42:02.843Z,51.92
2018-05-23T07:45:06.105Z,56.21
2018-05-23T07:48:09.358Z,59.29
2018-05-23T07:51:12.676Z,59.04
2018-05-23T07:54:15.929Z,56.84
2018-05-23T07:57:20.027Z,55.49
2018-05-23T08:00:24.158Z,55.42
2018-05-23T08:03:28.489Z,55.91
2018-05-23T08:06:31.971Z,51.70
2018-05-23T08:09:35.986Z,56.12
2018-05-23T08:12:40.112Z,58.30
2018-05-23T08:15:44.145Z,56.55
2018-05-23T08:18:47.417Z,61.20
2018-05-23T08:21:51.459Z,60.08
2018-05-23T08:24:54.727Z,57.93
2018-05-23T08:27:58.751Z,56.40
2018-05-23T08:31:02.051Z,56.72
2018-05-23T08:34:06.071Z,57.73
2018-05-23T08:37:09.372Z,57.27
2018-05-23T08:40:12.632Z,56.14
2018-05-23T08:43:15.933Z,53.97
2018-05-23T08:46:19.283Z,57.75
2018-05-23T08:49:22.557Z,56.84
2018-05-23T08:52:25.822Z,56.90
2018-05-23T08:55:29.846Z,56.67
2018-05-23T08:58:33.856Z,55.10
2018-05-23T09:01:37.889Z,54.73
2018-05-23T09:04:41.967Z,55.67
2018-05-23T09:07:45.186Z,57.37
2018-05-23T09:10:48.529Z,56.47
2018-05-23T09:13:51.788Z,55.83
2018-05-23T09:16:55.817Z,52.12
2018-05-23T09:19:59.213Z,50.05
2018-05-23T09:23:03.234Z,49.46
2018-05-23T09:26:06.509Z,48.23
2018-05-23T09:29:10.540Z,49.87
2018-05-23T09:32:13.798Z,51.55
2018-05-23T09:35:17.130Z,55.17
2018-05-23T09:38:20.453Z,54.93
2018-05-23T09:41:24.590Z,54.96
2018-05-23T09:44:27.970Z,52.13
2018-05-23T09:47:31.231Z,49.88
2018-05-23T09:50:34.502Z,52.22
2018-05-23T09:53:37.761Z,51.76
2018-05-23T09:56:41.786Z,51.94
2018-05-23T09:59:45.049Z,50.96
2018-05-23T10:02:49.065Z,50.74
2018-05-23T10:05:53.089Z,52.16
2018-05-23T10:08:57.122Z,51.59
2018-05-23T10:12:00.376Z,52.37
2018-05-23T10:15:04.448Z,55.40
2018-05-23T10:18:07.705Z,56.37
2018-05-23T10:21:10.987Z,52.72
2018-05-23T10:24:14.268Z,54.64
2018-05-23T10:27:17.534Z,54.57
2018-05-23T10:30:20.798Z,51.20
2018-05-23T10:33:24.885Z,51.89
2018-05-23T10:36:28.942Z,53.24
2018-05-23T10:39:32.957Z,50.77
2018-05-23T10:42:37.012Z,51.14
2018-05-23T10:45:40.284Z,51.02
2018-05-23T10:48:43.546Z,50.90
2018-05-23T10:51:47.609Z,48.51
2018-05-23T10:54:51.603Z,51.45
2018-05-23T10:57:54.911Z,52.17
2018-05-23T11:00:58.972Z,52.74
2018-05-23T11:04:02.228Z,53.71
2018-05-23T11:07:06.437Z,53.67
2018-05-23T11:10:10.492Z,52.85
2018-05-23T11:13:13.780Z,53.55
2018-05-23T11:16:17.087Z,52.66
2018-05-23T11:19:20.333Z,52.51
2018-05-23T11:22:23.673Z,51.78
2018-05-23T11:25:26.983Z,52.12
2018-05-23T11:28:30.266Z,50.17
2018-05-23T11:31:33.521Z,53.30
2018-05-23T11:34:36.773Z,52.39
2018-05-23T11:37:40.065Z,51.53
2018-05-23T11:40:43.343Z,53.28
2018-05-23T11:43:47.459Z,52.81
2018-05-23T11:46:51.504Z,52.32
2018-05-23T11:49:54.778Z,50.04
2018-05-23T11:52:58.038Z,51.00
2018-05-23T11:56:01.306Z,49.04
2018-05-23T11:59:04.645Z,50.54
2018-05-23T12:02:08.069Z,49.69
2018-05-23T12:05:12.182Z,50.15
2018-05-23T12:08:16.220Z,51.70
2018-05-23T12:11:20.215Z,49.90
2018-05-23T12:14:24.331Z,50.97
2018-05-23T12:17:28.354Z,51.26
2018-05-23T12:20:32.571Z,51.03
2018-05-23T12:23:36.029Z,51.32
2018-05-23T12:26:39.744Z,48.61
2018-05-23T12:29:42.997Z,47.76
2018-05-23T12:32:46.268Z,45.67
2018-05-23T12:35:49.581Z,47.15
2018-05-23T12:38:52.860Z,46.16
2018-05-23T12:41:56.989Z,46.89
2018-05-23T12:45:00.261Z,47.92
2018-05-23T12:48:04.302Z,49.72
2018-05-23T12:51:07.575Z,48.88
2018-05-23T12:54:11.697Z,48.91
2018-05-23T12:57:15.815Z,47.79
2018-05-23T13:00:19.832Z,48.13
2018-05-23T13:03:23.937Z,47.51
2018-05-23T13:06:27.128Z,49.34
2018-05-23T13:09:31.148Z,50.57
2018-05-23T13:12:35.230Z,50.15
2018-05-23T13:15:38.450Z,49.89
2018-05-23T13:18:42.584Z,49.94
2018-05-23T13:21:46.750Z,45.85
2018-05-23T13:24:50.048Z,46.26
2018-05-23T13:27:53.310Z,45.26
2018-05-23T13:30:57.444Z,46.38
2018-05-23T13:34:01.756Z,46.48
2018-05-23T13:37:05.473Z,45.35
2018-05-23T13:40:08.730Z,46.07
2018-05-23T13:43:12.774Z,47.81
2018-05-23T13:46:16.142Z,47.60
2018-05-23T13:49:20.183Z,46.39
2018-05-23T13:52:23.462Z,46.69
2018-05-23T13:55:27.641Z,46.47
2018-05-23T13:58:30.945Z,47.82
2018-05-23T14:01:34.314Z,47.23
2018-05-23T14:04:37.606Z,46.84
2018-05-23T14:07:40.889Z,45.67
2018-05-23T14:10:44.168Z,43.19
2018-05-23T14:13:48.227Z,45.18
2018-05-23T14:16:51.522Z,43.97
2018-05-23T14:19:54.781Z,45.07
2018-05-23T14:22:58.913Z,45.44
2018-05-23T14:26:03.024Z,46.21
2018-05-23T14:29:07.244Z,44.95
2018-05-23T14:32:10.554Z,46.27
2018-05-23T14:35:13.813Z,44.39
2018-05-23T14:38:17.139Z,46.06
2018-05-23T14:41:20.398Z,46.43
2018-05-23T14:44:23.731Z,46.68
2018-05-23T14:47:27.789Z,47.72
2018-05-23T14:50:32.578Z,47.94
2018-05-23T14:53:36.613Z,47.43
2018-05-23T14:56:39.902Z,48.08
2018-05-23T14:59:44.227Z,47.36
2018-05-23T15:02:47.486Z,47.94
2018-05-23T15:05:50.758Z,47.94
2018-05-23T15:08:54.280Z,48.87
2018-05-23T15:11:57.624Z,49.12
2018-05-23T15:15:00.913Z,49.18
2018-05-23T15:18:04.258Z,48.10
2018-05-23T15:21:07.527Z,48.56
2018-05-23T15:24:10.949Z,49.07
2018-05-23T15:27:14.417Z,48.37
2018-05-23T15:30:17.598Z,49.52
2018-05-23T15:33:21.627Z,49.62
2018-05-23T15:36:24.911Z,48.61
2018-05-23T15:39:28.941Z,50.00
2018-05-23T15:42:32.218Z,51.60
2018-05-23T15:45:36.239Z,51.46
2018-05-23T15:48:40.297Z,50.51
2018-05-23T15:51:43.516Z,51.79
2018-05-23T15:54:47.622Z,49.68
2018-05-23T15:57:50.902Z,49.92
2018-05-23T16:00:54.173Z,51.33
2018-05-23T16:03:57.429Z,49.69
2018-05-23T16:07:00.761Z,49.42
2018-05-23T16:10:04.160Z,50.18
2018-05-23T16:13:08.189Z,48.90
2018-05-23T16:16:11.442Z,49.06
2018-05-23T16:19:16.259Z,49.00
2018-05-23T16:22:19.537Z,50.07
2018-05-23T16:25:22.899Z,49.71
2018-05-23T16:28:26.924Z,49.09
2018-05-23T16:31:30.181Z,49.77
2018-05-23T16:34:34.341Z,50.86
2018-05-23T16:37:37.637Z,54.06
2018-05-23T16:40:40.902Z,54.05
2018-05-23T16:43:44.184Z,53.30
2018-05-23T16:46:47.496Z,53.85
2018-05-23T16:49:51.201Z,52.86
2018-05-23T16:52:54.545Z,53.29
2018-05-23T16:55:57.828Z,54.80
2018-05-23T16:59:02.050Z,54.08
2018-05-23T17:02:06.317Z,53.75
2018-05-23T17:05:09.573Z,51.83
2018-05-23T17:08:12.865Z,52.83
2018-05-23T17:11:16.265Z,53.39
2018-05-23T17:14:19.535Z,54.18
2018-05-23T17:17:22.822Z,54.61
2018-05-23T17:20:26.219Z,56.78
2018-05-23T17:23:29.552Z,54.62
2018-05-23T17:26:33.671Z,55.83
2018-05-23T17:29:37.784Z,56.52
2018-05-23T17:32:41.813Z,56.79
2018-05-23T17:35:45.085Z,56.49
2018-05-23T17:38:49.334Z,58.08
2018-05-23T17:41:52.633Z,59.43
2018-05-23T17:44:55.996Z,61.17
2018-05-23T17:47:59.471Z,63.14
2018-05-23T17:51:02.816Z,67.04
2018-05-23T17:54:06.935Z,70.12
2018-05-23T17:57:10.992Z,72.07
2018-05-23T18:00:14.372Z,72.17
2018-05-23T18:03:17.814Z,71.85
2018-05-23T18:06:21.084Z,72.97
2018-05-23T18:09:24.391Z,73.77
2018-05-23T18:12:27.753Z,73.86
2018-05-23T18:15:32.630Z,75.11
2018-05-23T18:18:36.046Z,74.87
2018-05-23T18:21:39.442Z,75.99
2018-05-23T18:24:42.758Z,76.63
2018-05-23T18:27:46.094Z,77.99
2018-05-23T18:30:50.124Z,77.68
2018-05-23T18:33:53.854Z,78.05
2018-05-23T18:36:57.153Z,78.59
2018-05-23T18:40:00.408Z,78.49
2018-05-23T18:43:04.613Z,78.36
2018-05-23T18:46:07.881Z,77.43
2018-05-23T18:49:11.330Z,78.96
2018-05-23T18:52:15.348Z,77.95
2018-05-23T18:55:19.398Z,78.49
2018-05-23T18:58:22.658Z,79.64
2018-05-23T19:01:26.675Z,78.83
2018-05-23T19:04:30.696Z,79.45
2018-05-23T19:07:33.950Z,79.39
2018-05-23T19:10:37.219Z,79.79
2018-05-23T19:13:40.481Z,80.26
2018-05-23T19:16:44.523Z,80.33
2018-05-23T19:19:48.097Z,81.09
2018-05-23T19:22:51.331Z,80.45
2018-05-23T19:25:54.816Z,80.56
2018-05-23T19:28:58.104Z,80.05
2018-05-23T19:32:02.118Z,81.19
2018-05-23T19:35:05.383Z,80.66
2018-05-23T19:38:08.645Z,79.67
2018-05-23T19:41:12.001Z,80.50
2018-05-23T19:44:16.030Z,80.32
2018-05-23T19:47:19.345Z,80.28
2018-05-23T19:50:23.430Z,79.26
2018-05-23T19:53:27.530Z,79.58
2018-05-23T19:56:30.832Z,79.32
2018-05-23T19:59:34.134Z,79.54
2018-05-23T20:02:38.149Z,79.63
2018-05-23T20:05:42.191Z,79.88
2018-05-23T20:08:45.455Z,80.25
2018-05-23T20:11:48.701Z,82.00
2018-05-23T20:14:51.961Z,81.11
2018-05-23T20:17:55.978Z,80.79
2018-05-23T20:21:00.024Z,80.76
2018-05-23T20:24:03.302Z,82.25
2018-05-23T20:27:06.581Z,81.42
2018-05-23T20:30:10.703Z,81.20
2018-05-23T20:33:14.742Z,81.21
2018-05-23T20:36:17.995Z,80.81
2018-05-23T20:39:21.254Z,80.79
2018-05-23T20:42:24.518Z,81.00
2018-05-23T20:45:27.782Z,80.77
2018-05-23T20:48:31.829Z,82.83
2018-05-23T20:51:35.974Z,82.27
2018-05-23T20:54:39.251Z,81.61
2018-05-23T20:57:42.527Z,81.17
2018-05-23T21:00:46.560Z,81.77
2018-05-23T21:03:49.857Z,81.50
2018-05-23T21:06:53.151Z,81.83
2018-05-23T21:09:58.023Z,81.83
2018-05-23T21:13:01.413Z,82.91
2018-05-23T21:16:04.735Z,82.06
2018-05-23T21:19:08.537Z,81.82
2018-05-23T21:22:11.797Z,81.69
2018-05-23T21:25:15.066Z,81.36
2018-05-23T21:28:18.313Z,81.25
2018-05-23T21:31:22.139Z,81.87
2018-05-23T21:34:26.760Z,82.07
2018-05-23T21:37:30.026Z,82.49
2018-05-23T21:40:33.285Z,82.77
2018-05-23T21:43:36.549Z,82.77
2018-05-23T21:46:39.847Z,82.21
2018-05-23T21:49:43.123Z,81.86
2018-05-23T21:52:46.410Z,81.97
2018-05-23T21:55:50.470Z,82.26
2018-05-23T21:58:53.730Z,82.33
2018-05-23T22:01:57.746Z,82.97
2018-05-23T22:05:01.005Z,83.52
2018-05-23T22:08:04.250Z,82.82
2018-05-23T22:11:07.507Z,83.91
2018-05-23T22:14:11.532Z,83.62
2018-05-23T22:17:15.554Z,83.48
2018-05-23T22:20:19.778Z,84.22
2018-05-23T22:23:23.819Z,83.09
2018-05-23T22:26:27.092Z,83.67
2018-05-23T22:29:30.373Z,83.84
2018-05-23T22:32:34.430Z,84.11
2018-05-23T22:35:37.704Z,84.05
2018-05-23T22:38:40.962Z,83.67
2018-05-23T22:41:44.224Z,83.66
2018-05-23T22:44:47.698Z,83.76
2018-05-23T22:47:51.807Z,84.60
2018-05-23T22:50:55.838Z,84.09
2018-05-23T22:53:59.141Z,83.32
2018-05-23T22:57:02.401Z,82.99
2018-05-23T23:00:05.664Z,83.44
2018-05-23T23:03:09.007Z,83.50
2018-05-23T23:06:13.046Z,83.89
2018-05-23T23:09:16.305Z,84.50
2018-05-23T23:12:19.628Z,83.99
2018-05-23T23:15:23.650Z,84.03
2018-05-23T23:18:26.898Z,84.15
2018-05-23T23:21:30.173Z,84.33
2018-05-23T23:24:33.414Z,84.08
2018-05-23T23:27:37.440Z,84.38
2018-05-23T23:30:41.534Z,84.12
2018-05-23T23:33:46.531Z,84.26
2018-05-23T23:36:49.844Z,84.96
2018-05-23T23:39:53.086Z,85.17
2018-05-23T23:42:57.121Z,84.62
2018-05-23T23:46:00.373Z,84.56
2018-05-23T23:49:03.626Z,84.48
2018-05-23T23:52:06.890Z,84.56
2018-05-23T23:55:11.016Z,84.74
2018-05-23T23:58:15.051Z,85.39
